Time;durP1;ratioP1;P1;durP2;ratioP2;P2;SDS_P1;SDS_P2;PMS_P1;PMS_P2;Temp;Humidity;BMP_temperature;BMP_pressure;BME280_temperature;BME280_humidity;BME280_pressure;Samples;Min_cycle;Max_cycle;Signal;HPM_P1;HPM_P2
2021/04/15 00:01:11;;;;;;;6.03;4.50;;;3.60;99.90;;;;;;5033288;28;20049;-74
2021/04/15 00:03:37;;;;;;;6.40;5.13;;;3.60;99.90;;;;;;5033480;28;20075;-74
2021/04/15 00:06:14;;;;;;;8.23;5.38;;;3.70;99.90;;;;;;5033817;28;20511;-74
2021/04/15 00:08:41;;;;;;;5.80;4.22;;;3.80;99.90;;;;;;5033759;28;20029;-74
2021/04/15 00:11:08;;;;;;;6.80;4.55;;;3.80;99.90;;;;;;5033711;28;20049;-74
2021/04/15 00:13:40;;;;;;;7.75;4.72;;;3.60;99.90;;;;;;5033746;28;20037;-74
2021/04/15 00:16:07;;;;;;;6.78;4.72;;;3.40;99.90;;;;;;5033401;28;20029;-75
2021/04/15 00:18:33;;;;;;;16.90;11.32;;;3.10;99.90;;;;;;5033013;28;20076;-74
2021/04/15 00:20:59;;;;;;;17.50;10.90;;;3.10;99.90;;;;;;5033271;28;20041;-74
2021/04/15 00:23:25;;;;;;;7.13;4.65;;;3.10;99.90;;;;;;5050824;28;20036;-74
2021/04/15 00:25:51;;;;;;;5.57;4.20;;;3.10;99.90;;;;;;5039347;28;20028;-74
2021/04/15 00:28:18;;;;;;;6.97;3.08;;;3.20;99.90;;;;;;5033177;28;20021;-74
2021/04/15 00:30:44;;;;;;;4.00;3.25;;;3.40;99.90;;;;;;5032538;28;20029;-74
2021/04/15 00:33:11;;;;;;;5.38;3.65;;;3.50;99.90;;;;;;5033339;28;20060;-74
2021/04/15 00:35:38;;;;;;;3.35;2.85;;;3.70;99.90;;;;;;5033381;28;20021;-74
2021/04/15 00:38:06;;;;;;;3.13;2.08;;;3.70;99.90;;;;;;5033203;28;20034;-74
2021/04/15 00:40:33;;;;;;;4.88;2.78;;;3.50;99.90;;;;;;5032906;28;20026;-74
2021/04/15 00:43:00;;;;;;;4.03;2.78;;;3.30;99.90;;;;;;5032973;28;20040;-74
2021/04/15 00:45:30;;;;;;;6.15;4.30;;;3.20;99.90;;;;;;5023743;28;20030;-74
2021/04/15 00:48:06;;;;;;;;;;;3.00;99.90;;;;;;5036707;28;20078;-74
2021/04/15 00:50:38;;;;;;;8.75;4.15;;;3.20;99.90;;;;;;5032409;28;19909;-74
2021/04/15 00:53:07;;;;;;;3.35;3.05;;;3.40;99.90;;;;;;5031475;28;20115;-74
2021/04/15 00:55:35;;;;;;;4.35;2.65;;;3.50;99.90;;;;;;5032902;28;20441;-74
2021/04/15 00:58:03;;;;;;;3.63;2.38;;;3.40;99.90;;;;;;5032807;28;20487;-74
2021/04/15 01:00:31;;;;;;;3.22;2.92;;;3.10;99.90;;;;;;5032299;28;20049;-74
2021/04/15 01:02:59;;;;;;;6.25;3.90;;;2.90;99.90;;;;;;5037855;28;20033;-74
2021/04/15 01:05:33;;;;;;;5.35;3.53;;;2.60;99.90;;;;;;5052724;28;20029;-74
2021/04/15 01:07:59;;;;;;;6.97;3.97;;;2.80;99.90;;;;;;5052408;28;20512;-74
2021/04/15 01:10:27;;;;;;;6.28;4.18;;;2.80;99.90;;;;;;5051228;28;20040;-74
2021/04/15 01:13:07;;;;;;;3.60;2.85;;;3.10;99.90;;;;;;5051862;28;20029;-74
2021/04/15 01:15:52;;;;;;;;;;;3.30;99.90;;;;;;5038310;28;20037;-74
2021/04/15 01:18:22;;;;;;;6.28;3.30;;;3.40;99.90;;;;;;5032454;28;19905;-74
2021/04/15 01:21:15;;;;;;;7.65;4.13;;;3.00;99.90;;;;;;5032493;28;20026;-74
2021/04/15 01:24:02;;;;;;;7.43;3.85;;;2.90;99.90;;;;;;5032321;28;20045;-74
2021/04/15 01:26:53;;;;;;;4.40;2.88;;;2.80;99.90;;;;;;5032207;28;20033;-74
2021/04/15 01:29:34;;;;;;;2.67;2.20;;;2.80;99.90;;;;;;5032004;28;20147;-74
2021/04/15 01:32:28;;;;;;;2.50;2.00;;;2.70;99.90;;;;;;5031914;28;20104;-74
2021/04/15 01:35:09;;;;;;;2.88;1.67;;;2.60;99.90;;;;;;5032192;28;20573;-74
2021/04/15 01:37:45;;;;;;;5.00;2.83;;;2.30;99.90;;;;;;5032226;28;20033;-74
2021/04/15 01:40:23;;;;;;;6.85;3.08;;;2.00;99.90;;;;;;5031932;28;20116;-74
2021/04/15 01:42:53;;;;;;;3.78;2.67;;;2.00;99.90;;;;;;5032199;28;20430;-74
2021/04/15 01:45:20;;;;;;;3.30;2.60;;;2.20;99.90;;;;;;5031737;28;20079;-74
2021/04/15 01:47:56;;;;;;;3.38;2.17;;;2.50;99.90;;;;;;5031894;28;20049;-75
2021/04/15 01:50:34;;;;;;;2.20;2.00;;;2.60;99.90;;;;;;5031662;28;20081;-75
2021/04/15 01:53:21;;;;;;;2.80;2.30;;;2.30;99.90;;;;;;5031870;28;20030;-74
2021/04/15 01:56:23;;;;;;;3.05;1.80;;;1.90;99.90;;;;;;5031890;28;20047;-75
2021/04/15 01:59:08;;;;;;;3.40;1.95;;;1.70;99.90;;;;;;5030138;28;20060;-75
2021/04/15 02:01:38;;;;;;;2.28;2.00;;;1.80;99.90;;;;;;5031505;28;20207;-74
2021/04/15 02:04:06;;;;;;;;;;;1.50;99.90;;;;;;5032298;28;20037;-75
2021/04/15 02:06:37;;;;;;;2.72;2.38;;;1.40;99.90;;;;;;5031790;28;20440;-74
2021/04/15 02:09:10;;;;;;;3.47;2.53;;;1.40;99.90;;;;;;5031756;28;20091;-75
2021/04/15 02:11:45;;;;;;;3.95;2.60;;;1.20;99.90;;;;;;5031838;28;20025;-74
2021/04/15 02:14:19;;;;;;;4.78;2.40;;;1.60;99.90;;;;;;5031410;28;20029;-74
2021/04/15 02:16:50;;;;;;;3.63;2.70;;;1.80;99.90;;;;;;5031585;28;20398;-74
2021/04/15 02:19:24;;;;;;;3.45;2.88;;;2.10;99.90;;;;;;5031569;28;20515;-75
2021/04/15 02:22:28;;;;;;;3.35;2.20;;;2.10;99.90;;;;;;5031559;28;20064;-75
2021/04/15 02:25:01;;;;;;;3.00;2.25;;;2.10;99.90;;;;;;5035679;28;20561;-74
2021/04/15 02:28:00;;;;;;;3.67;2.72;;;2.30;99.90;;;;;;5035388;28;20502;-74
2021/04/15 02:30:39;;;;;;;4.93;3.00;;;2.30;99.90;;;;;;5035445;28;20029;-74
2021/04/15 02:33:19;;;;;;;6.32;3.97;;;2.20;99.90;;;;;;5035636;28;20049;-74
2021/04/15 02:35:49;;;;;;;10.68;3.97;;;2.10;99.90;;;;;;5035616;28;20167;-74
2021/04/15 02:38:19;;;;;;;7.30;3.60;;;2.10;99.90;;;;;;5035378;28;20041;-74
2021/04/15 02:41:15;;;;;;;6.63;3.65;;;1.80;99.90;;;;;;5035422;28;20299;-74
2021/04/15 02:43:51;;;;;;;7.03;3.22;;;1.70;99.90;;;;;;5042102;28;20399;-74
2021/04/15 02:46:22;;;;;;;6.18;4.50;;;1.60;99.90;;;;;;5034901;28;20032;-74
2021/04/15 02:48:50;;;;;;;8.35;4.35;;;1.80;99.90;;;;;;5035222;28;20021;-74
2021/04/15 02:51:26;;;;;;;7.10;3.47;;;1.90;99.90;;;;;;5035241;28;20026;-74
2021/04/15 02:54:02;;;;;;;7.00;3.97;;;1.70;99.90;;;;;;5034980;28;20114;-74
2021/04/15 02:56:39;;;;;;;6.75;4.28;;;1.60;99.90;;;;;;5034685;28;20159;-74
2021/04/15 02:59:27;;;;;;;5.35;2.97;;;1.30;99.90;;;;;;5033666;28;20042;-74
2021/04/15 03:02:04;;;;;;;6.85;3.03;;;1.30;99.90;;;;;;5034581;28;20042;-74
2021/04/15 03:04:32;;;;;;;3.15;2.58;;;1.50;99.90;;;;;;5034862;28;20071;-74
2021/04/15 03:06:58;;;;;;;5.57;2.88;;;1.80;99.90;;;;;;5034992;28;20060;-74
2021/04/15 03:09:26;;;;;;;4.43;3.03;;;2.00;99.90;;;;;;5034776;28;20395;-75
2021/04/15 03:12:00;;;;;;;4.07;2.60;;;2.10;99.90;;;;;;5034604;28;20609;-74
2021/04/15 03:14:31;;;;;;;3.33;2.53;;;1.90;99.90;;;;;;5034708;28;20022;-75
2021/04/15 03:17:03;;;;;;;3.88;2.70;;;1.50;99.90;;;;;;5034720;28;20018;-75
2021/04/15 03:19:38;;;;;;;2.80;2.45;;;1.70;99.90;;;;;;5034610;28;20045;-75
2021/04/15 03:22:23;;;;;;;3.03;2.45;;;1.90;99.90;;;;;;5034661;28;20034;-75
2021/04/15 03:24:53;;;;;;;2.42;1.98;;;1.90;99.90;;;;;;5034336;28;20537;-74
2021/04/15 03:27:33;;;;;;;3.25;2.95;;;1.80;99.90;;;;;;5034364;28;20056;-74
2021/04/15 03:30:12;;;;;;;4.07;2.53;;;1.60;99.90;;;;;;5033480;28;20041;-74
2021/04/15 03:32:50;;;;;;;4.10;2.83;;;1.50;99.90;;;;;;5052782;28;20495;-74
2021/04/15 03:35:38;;;;;;;2.45;2.25;;;1.50;99.90;;;;;;5031786;28;20040;-74
2021/04/15 03:38:16;;;;;;;3.35;2.47;;;1.50;99.90;;;;;;5032942;28;20383;-75
2021/04/15 03:40:57;;;;;;;5.70;2.50;;;1.60;99.90;;;;;;5031840;28;20021;-74
2021/04/15 03:43:34;;;;;;;4.25;2.88;;;1.50;99.90;;;;;;5032542;28;20021;-74
2021/04/15 03:46:10;;;;;;;2.97;2.60;;;1.50;99.90;;;;;;5032688;28;20460;-74
2021/04/15 03:48:44;;;;;;;3.03;2.45;;;1.50;99.90;;;;;;5033767;28;20030;-74
2021/04/15 03:51:20;;;;;;;2.10;1.90;;;1.50;99.90;;;;;;5048736;28;20055;-74
2021/04/15 03:53:56;;;;;;;3.25;2.50;;;1.60;99.90;;;;;;5052949;28;20037;-75
2021/04/15 03:56:31;;;;;;;2.88;2.22;;;1.50;99.90;;;;;;5014124;28;20045;-74
2021/04/15 03:59:02;;;;;;;4.25;2.05;;;1.30;99.90;;;;;;5014066;28;20141;-74
2021/04/15 04:01:32;;;;;;;11.30;4.15;;;1.20;99.90;;;;;;5019865;28;20061;-74
2021/04/15 04:04:07;;;;;;;3.42;2.50;;;1.30;99.90;;;;;;5034227;28;20032;-74
2021/04/15 04:06:39;;;;;;;11.32;2.47;;;1.40;99.90;;;;;;5033501;28;20029;-74
2021/04/15 04:09:16;;;;;;;3.70;2.58;;;1.50;99.90;;;;;;5033516;28;20026;-74
2021/04/15 04:11:45;;;;;;;3.20;2.20;;;1.40;99.90;;;;;;5032412;28;20388;-74
2021/04/15 04:14:27;;;;;;;5.32;2.30;;;1.30;99.90;;;;;;5033696;28;20429;-74
2021/04/15 04:17:09;;;;;;;5.65;2.45;;;1.30;99.90;;;;;;5033389;28;20042;-74
2021/04/15 04:19:48;;;;;;;3.40;2.60;;;1.20;99.90;;;;;;5029921;28;20042;-74
2021/04/15 04:22:47;;;;;;;2.67;2.47;;;0.90;99.90;;;;;;5033440;28;20033;-74
2021/04/15 04:25:51;;;;;;;3.13;2.80;;;0.90;99.90;;;;;;5033348;28;20368;-74
2021/04/15 04:28:34;;;;;;;6.05;3.00;;;0.90;99.90;;;;;;5031133;28;20426;-74
2021/04/15 04:31:08;;;;;;;3.97;3.10;;;0.70;99.90;;;;;;5030058;28;20041;-74
2021/04/15 04:33:44;;;;;;;7.35;5.30;;;0.70;99.90;;;;;;5031021;28;20048;-74
2021/04/15 04:36:13;;;;;;;5.78;5.18;;;0.60;99.90;;;;;;5029551;28;20521;-74
2021/04/15 04:38:39;;;;;;;5.47;4.70;;;0.70;99.90;;;;;;5028023;28;20406;-74
2021/04/15 04:41:10;;;;;;;4.68;3.95;;;0.80;99.90;;;;;;5041006;28;20052;-74
2021/04/15 04:43:48;;;;;;;5.57;3.80;;;0.90;99.90;;;;;;5045620;28;20032;-74
2021/04/15 04:46:25;;;;;;;5.95;3.97;;;1.10;99.90;;;;;;5029774;28;20108;-75
2021/04/15 04:48:55;;;;;;;3.65;3.28;;;1.20;99.90;;;;;;5029169;28;20029;-74
2021/04/15 04:51:22;;;;;;;5.20;3.28;;;1.20;99.90;;;;;;5029699;28;20128;-74
2021/04/15 04:53:50;;;;;;;4.32;3.35;;;1.10;99.90;;;;;;5026460;28;20037;-74
2021/04/15 04:56:31;;;;;;;5.00;2.85;;;1.10;99.90;;;;;;5029413;28;20033;-75
2021/04/15 04:59:01;;;;;;;6.47;3.72;;;1.00;99.90;;;;;;5029448;28;20097;-75
2021/04/15 05:01:27;;;;;;;;;;;0.90;99.90;;;;;;5043504;28;20414;-75
2021/04/15 05:04:00;;;;;;;4.28;2.08;;;0.90;99.90;;;;;;5037814;28;19911;-75
2021/04/15 05:06:30;;;;;;;4.20;3.28;;;0.80;99.90;;;;;;5031292;28;20057;-75
2021/04/15 05:09:23;;;;;;;6.25;2.97;;;0.70;99.90;;;;;;5032793;28;20457;-75
2021/04/15 05:11:50;;;;;;;6.07;3.80;;;0.70;99.90;;;;;;5023283;28;20025;-75
2021/04/15 05:14:23;;;;;;;10.27;2.97;;;0.60;99.90;;;;;;5032803;28;20029;-75
2021/04/15 05:16:54;;;;;;;5.55;3.53;;;0.70;99.90;;;;;;5033037;28;20509;-75
2021/04/15 05:19:21;;;;;;;3.85;3.17;;;0.70;99.90;;;;;;5034917;28;20037;-75
2021/04/15 05:21:48;;;;;;;4.25;3.60;;;0.80;99.90;;;;;;5039903;28;20013;-75
2021/04/15 05:24:29;;;;;;;3.80;3.50;;;0.90;99.90;;;;;;5030465;28;20095;-75
2021/04/15 05:26:57;;;;;;;5.20;3.03;;;0.90;99.90;;;;;;5031745;28;20053;-74
2021/04/15 05:29:43;;;;;;;5.03;3.55;;;0.70;99.90;;;;;;5032550;28;20026;-74
2021/04/15 05:32:15;;;;;;;4.55;3.45;;;0.70;99.90;;;;;;5040820;28;20045;-75
2021/04/15 05:34:43;;;;;;;6.07;3.58;;;0.70;99.90;;;;;;5034300;28;20022;-75
2021/04/15 05:37:18;;;;;;;5.43;3.75;;;0.60;99.90;;;;;;5031488;28;20071;-75
2021/04/15 05:39:45;;;;;;;5.63;3.97;;;0.70;99.90;;;;;;5032426;28;20595;-75
2021/04/15 05:42:18;;;;;;;6.75;4.93;;;0.70;99.90;;;;;;5035766;28;20035;-75
2021/04/15 05:44:54;;;;;;;6.40;4.85;;;0.80;99.90;;;;;;5031826;28;20104;-75
2021/04/15 05:47:23;;;;;;;6.43;4.13;;;0.90;99.90;;;;;;5034877;28;20040;-75
2021/04/15 05:49:56;;;;;;;7.47;4.35;;;1.00;99.90;;;;;;5036907;28;20399;-75
2021/04/15 05:52:26;;;;;;;6.35;3.92;;;1.00;99.90;;;;;;5031441;28;20033;-75
2021/04/15 05:54:56;;;;;;;4.20;3.70;;;0.90;99.90;;;;;;5030488;28;20442;-75
2021/04/15 05:57:28;;;;;;;7.25;4.65;;;0.70;99.90;;;;;;5030027;28;20550;-74
2021/04/15 06:00:23;;;;;;;6.30;4.22;;;0.70;99.90;;;;;;5029750;28;20107;-75
2021/04/15 06:03:14;;;;;;;5.25;2.97;;;0.80;99.90;;;;;;5027091;28;20092;-75
2021/04/15 06:05:50;;;;;;;5.93;2.30;;;1.10;99.90;;;;;;5028750;28;20454;-74
2021/04/15 06:08:17;;;;;;;5.45;4.10;;;1.30;99.90;;;;;;5051441;28;20033;-74
2021/04/15 06:10:43;;;;;;;4.72;2.97;;;1.20;99.90;;;;;;5051597;28;20449;-74
2021/04/15 06:13:28;;;;;;;5.38;2.78;;;0.90;99.90;;;;;;5051653;28;20080;-74
2021/04/15 06:16:04;;;;;;;9.43;3.25;;;0.80;99.90;;;;;;5037693;28;20099;-74
2021/04/15 06:18:33;;;;;;;5.18;2.60;;;1.20;99.90;;;;;;5031705;28;20032;-74
2021/04/15 06:21:04;;;;;;;6.22;2.80;;;1.40;99.90;;;;;;5031609;28;20029;-74
2021/04/15 06:23:40;;;;;;;11.65;3.40;;;1.60;99.90;;;;;;5031545;28;20041;-74
2021/04/15 06:26:08;;;;;;;4.50;2.30;;;1.80;99.90;;;;;;5031835;28;20029;-74
2021/04/15 06:28:40;;;;;;;4.53;2.42;;;1.80;99.90;;;;;;5031823;28;20038;-74
2021/04/15 06:31:18;;;;;;;4.35;2.20;;;1.80;99.90;;;;;;5031434;28;20117;-74
2021/04/15 06:33:45;;;;;;;5.18;3.08;;;1.90;99.90;;;;;;5031329;28;20056;-74
2021/04/15 06:36:25;;;;;;;4.13;2.63;;;1.80;99.90;;;;;;5031321;28;20026;-74
2021/04/15 06:39:09;;;;;;;3.92;2.80;;;2.00;99.90;;;;;;5030265;28;20033;-74
2021/04/15 06:41:56;;;;;;;3.88;3.10;;;2.10;99.90;;;;;;5031578;28;20033;-74
2021/04/15 06:44:49;;;;;;;8.00;2.65;;;2.20;99.90;;;;;;5063489;28;20022;-74
2021/04/15 06:47:16;;;;;;;4.57;2.80;;;2.50;99.90;;;;;;5031460;28;20021;-74
2021/04/15 06:49:56;;;;;;;4.22;2.92;;;2.80;99.90;;;;;;5031203;28;20017;-75
2021/04/15 06:52:39;;;;;;;5.10;2.92;;;3.10;99.90;;;;;;5031224;28;20483;-74
2021/04/15 06:55:20;;;;;;;6.05;3.72;;;3.30;99.90;;;;;;5031393;28;20463;-74
2021/04/15 06:58:01;;;;;;;6.13;4.00;;;3.40;99.90;;;;;;5031473;28;20017;-74
2021/04/15 07:00:40;;;;;;;10.00;6.63;;;3.40;99.90;;;;;;5031163;28;20053;-74
2021/04/15 07:03:34;;;;;;;19.42;9.52;;;3.50;99.90;;;;;;5062984;28;20025;-74
2021/04/15 07:06:41;;;;;;;14.60;9.35;;;3.40;99.90;;;;;;5032179;28;20080;-75
2021/04/15 07:09:44;;;;;;;9.30;6.72;;;3.70;99.90;;;;;;5048855;28;20044;-75
2021/04/15 07:12:10;;;;;;;12.60;7.70;;;4.00;99.90;;;;;;5052654;28;20040;-75
2021/04/15 07:14:55;;;;;;;13.07;7.13;;;4.30;99.90;;;;;;5052578;28;20029;-75
2021/04/15 07:17:58;;;;;;;8.88;6.07;;;4.60;99.90;;;;;;5051995;28;20064;-75
2021/04/15 07:20:45;;;;;;;6.97;5.28;;;4.80;99.90;;;;;;5052446;28;20044;-75
2021/04/15 07:23:48;;;;;;;9.52;4.15;;;5.00;99.90;;;;;;5052414;28;20040;-75
2021/04/15 07:26:20;;;;;;;5.65;3.65;;;5.30;99.90;;;;;;5052447;28;20145;-75
2021/04/15 07:28:57;;;;;;;3.40;2.90;;;5.50;99.90;;;;;;5052311;28;20040;-75
2021/04/15 07:31:34;;;;;;;3.45;3.15;;;5.60;99.90;;;;;;5051969;28;20048;-75
2021/04/15 07:34:52;;;;;;;3.10;2.40;;;5.80;99.90;;;;;;5052299;28;20072;-75
2021/04/15 07:37:52;;;;;;;6.75;3.20;;;6.00;99.90;;;;;;4952809;28;20125;-75
2021/04/15 07:40:17;;;;;;;5.20;2.40;;;6.20;99.90;;;;;;4992924;28;20034;-75
2021/04/15 07:43:03;;;;;;;2.55;2.35;;;6.40;99.90;;;;;;4985547;28;20485;-75
2021/04/15 07:45:40;;;;;;;5.07;3.00;;;6.50;99.90;;;;;;4973216;28;20093;-75
2021/04/15 07:48:30;;;;;;;3.63;2.40;;;6.70;99.90;;;;;;4973303;28;20193;-75
2021/04/15 07:51:07;;;;;;;2.40;2.20;;;7.00;99.90;;;;;;4973262;28;20182;-75
2021/04/15 07:53:50;;;;;;;2.95;2.03;;;7.20;99.90;;;;;;4973208;28;20599;-75
2021/04/15 07:56:38;;;;;;;2.90;2.05;;;7.40;99.90;;;;;;4973110;28;20039;-75
2021/04/15 07:59:24;;;;;;;2.55;2.28;;;7.50;99.90;;;;;;4972904;28;20157;-75
2021/04/15 08:02:17;;;;;;;3.72;2.20;;;7.70;97.00;;;;;;4972685;28;20101;-75
2021/04/15 08:04:55;;;;;;;2.40;2.20;;;7.90;96.60;;;;;;4972935;28;20038;-75
2021/04/15 08:07:39;;;;;;;6.20;2.20;;;8.10;97.50;;;;;;4973041;28;20102;-75
2021/04/15 08:10:34;;;;;;;3.75;1.65;;;8.40;93.80;;;;;;4972888;28;20043;-75
2021/04/15 08:13:37;;;;;;;2.90;1.83;;;8.70;94.60;;;;;;4972807;28;20178;-75
2021/04/15 08:16:28;;;;;;;3.35;2.65;;;9.10;93.10;;;;;;5033396;28;20025;-75
2021/04/15 08:19:00;;;;;;;4.30;2.13;;;9.30;84.60;;;;;;5033677;28;20124;-75
2021/04/15 08:21:36;;;;;;;3.78;2.15;;;9.50;87.70;;;;;;5033359;28;20046;-75
2021/04/15 08:24:04;;;;;;;6.38;2.30;;;9.70;82.60;;;;;;5033481;28;20026;-75
2021/04/15 08:26:52;;;;;;;4.13;2.38;;;10.00;83.80;;;;;;5033684;28;20100;-74
2021/04/15 08:29:28;;;;;;;4.63;1.88;;;10.40;92.40;;;;;;5033357;28;20091;-75
2021/04/15 08:32:15;;;;;;;7.55;2.20;;;10.90;91.20;;;;;;5033431;28;20025;-75
2021/04/15 08:34:51;;;;;;;2.10;1.88;;;11.00;81.10;;;;;;5033389;28;20030;-75
2021/04/15 08:37:36;;;;;;;6.78;3.08;;;11.40;81.80;;;;;;5033413;28;20527;-75
2021/04/15 08:40:08;;;;;;;4.53;2.00;;;11.70;85.10;;;;;;5032103;28;20026;-75
2021/04/15 08:43:11;;;;;;;4.93;2.00;;;12.40;83.30;;;;;;5033106;28;20037;-75
2021/04/15 08:45:39;;;;;;;2.45;2.08;;;13.00;78.60;;;;;;5032813;28;20509;-75
2021/04/15 08:48:26;;;;;;;3.90;2.33;;;13.40;74.70;;;;;;5031807;28;20040;-75
2021/04/15 08:51:15;;;;;;;2.55;1.85;;;13.20;71.80;;;;;;5031681;28;20466;-75
2021/04/15 08:53:49;;;;;;;5.60;2.30;;;12.80;71.40;;;;;;5032304;28;20041;-75
2021/04/15 08:56:28;;;;;;;4.47;2.45;;;12.90;68.50;;;;;;5032944;28;20033;-75
2021/04/15 08:59:21;;;;;;;3.47;2.45;;;13.20;72.40;;;;;;5032476;28;20109;-75
2021/04/15 09:02:17;;;;;;;3.15;2.08;;;13.60;73.00;;;;;;5032744;28;20458;-75
2021/04/15 09:05:10;;;;;;;3.28;2.15;;;13.60;71.50;;;;;;5032793;28;20058;-75
2021/04/15 09:07:56;;;;;;;6.20;2.55;;;14.00;70.10;;;;;;5032663;28;20104;-75
2021/04/15 09:10:46;;;;;;;4.28;2.10;;;14.20;73.20;;;;;;5032640;28;20483;-75
2021/04/15 09:13:17;;;;;;;6.88;2.25;;;14.30;76.00;;;;;;5032443;28;20018;-75
2021/04/15 09:15:43;;;;;;;3.78;2.38;;;15.00;75.40;;;;;;5032326;28;20032;-75
2021/04/15 09:18:24;;;;;;;2.55;2.35;;;18.20;64.50;;;;;;5032523;28;20025;-75
2021/04/15 09:21:01;;;;;;;4.82;2.83;;;22.70;50.70;;;;;;5032599;28;20071;-75
2021/04/15 09:23:42;;;;;;;3.90;2.50;;;24.40;44.70;;;;;;5031323;28;20021;-75
2021/04/15 09:26:21;;;;;;;2.75;2.30;;;26.00;42.30;;;;;;5032349;28;20495;-75
2021/04/15 09:29:07;;;;;;;3.03;2.83;;;26.20;43.10;;;;;;5032118;28;20033;-75
2021/04/15 09:31:56;;;;;;;3.25;2.95;;;26.80;40.70;;;;;;5030844;28;20408;-75
2021/04/15 09:34:46;;;;;;;4.03;2.88;;;27.00;38.80;;;;;;5032272;28;20036;-75
2021/04/15 09:37:32;;;;;;;3.25;2.53;;;27.30;41.70;;;;;;5032243;28;20021;-75
2021/04/15 09:40:09;;;;;;;4.38;3.00;;;27.10;37.20;;;;;;5032119;28;20034;-75
2021/04/15 09:42:50;;;;;;;5.70;2.75;;;25.30;41.70;;;;;;5031969;28;20029;-75
2021/04/15 09:45:26;;;;;;;4.47;3.22;;;27.00;41.70;;;;;;5032177;28;20041;-75
2021/04/15 09:48:25;;;;;;;5.70;2.70;;;27.60;41.20;;;;;;5032086;28;20021;-75
2021/04/15 09:50:57;;;;;;;5.50;3.10;;;28.20;39.00;;;;;;5031945;28;20040;-75
2021/04/15 09:53:51;;;;;;;4.13;3.15;;;28.30;37.90;;;;;;5031969;28;20478;-76
2021/04/15 09:56:36;;;;;;;3.72;3.42;;;28.10;37.50;;;;;;5031715;28;20034;-76
2021/04/15 09:59:28;;;;;;;5.63;3.60;;;28.90;37.00;;;;;;5031527;28;20087;-76
2021/04/15 10:02:08;;;;;;;6.05;3.33;;;28.60;38.70;;;;;;5031829;28;20038;-76
2021/04/15 10:04:52;;;;;;;4.55;3.53;;;29.00;36.00;;;;;;5031861;28;20053;-76
2021/04/15 10:07:27;;;;;;;3.65;3.35;;;28.80;37.50;;;;;;5030520;28;20526;-76
2021/04/15 10:10:02;;;;;;;3.90;3.47;;;27.90;37.50;;;;;;5031727;28;20036;-76
2021/04/15 10:13:18;;;;;;;4.20;3.80;;;27.00;36.30;;;;;;5030277;28;20116;-76
2021/04/15 10:15:53;;;;;;;3.95;3.65;;;27.60;37.40;;;;;;5029371;28;20045;-76
2021/04/15 10:18:50;;;;;;;4.60;3.90;;;28.60;35.80;;;;;;5029571;28;20502;-76
2021/04/15 10:21:41;;;;;;;7.95;4.15;;;27.80;35.40;;;;;;5029359;28;20029;-76
2021/04/15 10:24:29;;;;;;;4.32;3.92;;;28.30;35.50;;;;;;5029478;28;20034;-76
2021/04/15 10:27:14;;;;;;;4.10;3.72;;;29.10;36.60;;;;;;5029198;28;20057;-76
2021/04/15 10:29:58;;;;;;;4.85;3.70;;;30.10;36.50;;;;;;5012967;28;20057;-76
2021/04/15 10:32:43;;;;;;;4.80;4.40;;;29.90;34.50;;;;;;5029502;28;20038;-76
2021/04/15 10:35:45;;;;;;;4.88;4.32;;;30.70;35.20;;;;;;5029179;28;20064;-76
2021/04/15 10:38:28;;;;;;;4.45;4.13;;;30.80;34.00;;;;;;5029347;28;20629;-76
2021/04/15 10:41:25;;;;;;;6.65;4.50;;;30.80;35.30;;;;;;5028880;28;20164;-76
2021/04/15 10:44:28;;;;;;;4.70;4.30;;;30.80;34.00;;;;;;5030434;28;20036;-76
2021/04/15 10:47:04;;;;;;;4.88;4.50;;;30.80;32.90;;;;;;5033319;28;20037;-76
2021/04/15 10:49:45;;;;;;;4.57;4.18;;;31.10;33.30;;;;;;5033230;28;20121;-76
2021/04/15 10:52:38;;;;;;;4.95;4.55;;;31.20;33.20;;;;;;5034961;28;20037;-76
2021/04/15 10:55:24;;;;;;;5.03;4.63;;;31.60;34.10;;;;;;5034794;28;20026;-76
2021/04/15 10:57:51;;;;;;;5.30;4.80;;;31.90;33.10;;;;;;5035241;28;20037;-76
2021/04/15 11:00:25;;;;;;;6.95;4.95;;;31.80;35.10;;;;;;5034811;28;20056;-76
2021/04/15 11:02:57;;;;;;;5.60;5.15;;;32.00;30.80;;;;;;5035162;28;20034;-76
2021/04/15 11:05:37;;;;;;;5.28;4.70;;;33.10;31.60;;;;;;5035026;28;20364;-76
2021/04/15 11:08:10;;;;;;;7.40;5.25;;;33.80;30.80;;;;;;5034923;28;20053;-76
2021/04/15 11:10:36;;;;;;;6.25;5.18;;;33.30;30.00;;;;;;5034736;28;20033;-76
2021/04/15 11:13:25;;;;;;;5.40;4.95;;;33.60;31.10;;;;;;5034846;28;20052;-76
2021/04/15 11:15:57;;;;;;;4.35;4.05;;;33.60;30.10;;;;;;5034680;28;20025;-76
2021/04/15 11:18:27;;;;;;;5.43;4.93;;;33.20;29.70;;;;;;5034664;28;20064;-76
2021/04/15 11:21:10;;;;;;;5.03;4.63;;;32.20;29.60;;;;;;5034754;28;20057;-76
2021/04/15 11:23:35;;;;;;;6.13;5.05;;;33.30;31.40;;;;;;5034692;28;20044;-76
2021/04/15 11:26:26;;;;;;;4.75;4.43;;;33.20;31.30;;;;;;5034658;28;20033;-76
2021/04/15 11:29:19;;;;;;;6.07;5.57;;;33.80;31.20;;;;;;5034606;28;20136;-76
2021/04/15 11:31:45;;;;;;;5.80;5.25;;;34.40;31.70;;;;;;5034576;28;20041;-76
2021/04/15 11:34:23;;;;;;;5.30;4.80;;;34.10;29.60;;;;;;5034520;28;20430;-76
2021/04/15 11:37:05;;;;;;;7.13;5.30;;;34.30;29.90;;;;;;5034493;28;20034;-76
2021/04/15 11:39:36;;;;;;;5.07;4.68;;;34.00;32.20;;;;;;5034065;28;20021;-76
2021/04/15 11:42:15;;;;;;;4.90;4.55;;;34.00;30.10;;;;;;5034339;28;20052;-76
2021/04/15 11:44:56;;;;;;;6.93;5.50;;;32.80;29.70;;;;;;5034473;28;20033;-74
2021/04/15 11:47:26;;;;;;;6.00;5.18;;;32.60;29.00;;;;;;5034148;28;20026;-74
2021/04/15 11:49:53;;;;;;;8.57;4.88;;;34.20;30.50;;;;;;5034190;28;20083;-74
2021/04/15 11:52:30;;;;;;;5.53;5.03;;;34.20;30.00;;;;;;5033593;28;20064;-74
2021/04/15 11:54:56;;;;;;;6.15;5.55;;;34.20;30.50;;;;;;5033727;28;20126;-74
2021/04/15 11:57:29;;;;;;;20.23;6.10;;;35.10;32.10;;;;;;5033703;28;20061;-74
2021/04/15 12:00:02;;;;;;;4.90;4.55;;;33.40;30.30;;;;;;5033876;28;20519;-74
2021/04/15 12:02:43;;;;;;;5.35;4.57;;;33.80;30.50;;;;;;5033845;28;20648;-74
2021/04/15 12:05:17;;;;;;;5.05;4.53;;;34.50;31.30;;;;;;5033976;28;20518;-74
2021/04/15 12:07:54;;;;;;;4.32;4.03;;;34.70;30.20;;;;;;5033538;28;20442;-74
2021/04/15 12:10:28;;;;;;;6.75;4.50;;;34.70;30.10;;;;;;5033883;28;20028;-74
2021/04/15 12:13:00;;;;;;;5.45;4.95;;;32.40;30.10;;;;;;5033846;28;20026;-74
2021/04/15 12:15:45;;;;;;;4.47;4.18;;;32.60;30.60;;;;;;5033560;28;20454;-74
2021/04/15 12:18:18;;;;;;;43.67;7.10;;;33.90;29.40;;;;;;5033803;28;20044;-74
2021/04/15 12:20:54;;;;;;;5.38;4.72;;;34.00;29.30;;;;;;5033639;28;20029;-74
2021/04/15 12:23:41;;;;;;;5.28;4.78;;;34.40;30.80;;;;;;5033358;28;20060;-74
2021/04/15 12:26:38;;;;;;;5.80;4.35;;;34.50;30.80;;;;;;5033600;28;20103;-74
2021/04/15 12:29:16;;;;;;;5.70;5.20;;;34.60;31.90;;;;;;5033139;28;20136;-74
2021/04/15 12:31:48;;;;;;;4.95;4.53;;;32.60;31.70;;;;;;5033438;28;20029;-74
2021/04/15 12:34:28;;;;;;;6.07;5.18;;;33.90;32.00;;;;;;5033669;28;20116;-74
2021/04/15 12:37:13;;;;;;;;;;;34.30;30.80;;;;;;5032078;28;20521;-74
2021/04/15 12:39:53;;;;;;;4.75;4.40;;;34.70;31.10;;;;;;5032876;28;20393;-74
2021/04/15 12:42:25;;;;;;;6.32;5.60;;;32.70;30.10;;;;;;5033299;28;20030;-74
2021/04/15 12:44:55;;;;;;;7.00;4.25;;;32.40;32.10;;;;;;5031941;28;20071;-74
2021/04/15 12:47:22;;;;;;;4.32;4.03;;;32.80;31.90;;;;;;5033104;28;20049;-74
2021/04/15 12:49:50;;;;;;;4.50;4.20;;;33.60;29.80;;;;;;5033133;28;20469;-74
2021/04/15 12:52:15;;;;;;;6.03;5.05;;;34.20;31.50;;;;;;5032689;28;20065;-74
2021/04/15 12:54:43;;;;;;;8.13;5.07;;;34.40;32.10;;;;;;5033057;28;20056;-74
2021/04/15 12:57:13;;;;;;;4.53;4.10;;;33.30;29.70;;;;;;5033065;28;20048;-74
2021/04/15 12:59:41;;;;;;;;;;;33.20;32.20;;;;;;5031758;28;20049;-74
2021/04/15 13:02:32;;;;;;;7.60;4.72;;;33.90;31.80;;;;;;5032864;28;20382;-74
2021/04/15 13:05:11;;;;;;;5.93;4.18;;;33.40;30.00;;;;;;5031906;28;20033;-74
2021/04/15 13:07:39;;;;;;;5.20;4.72;;;31.50;30.40;;;;;;5030498;28;20021;-74
2021/04/15 13:10:14;;;;;;;5.25;4.53;;;31.60;30.90;;;;;;5032779;28;20026;-74
2021/04/15 13:12:48;;;;;;;5.63;5.00;;;32.60;29.80;;;;;;5032653;28;20041;-74
2021/04/15 13:15:23;;;;;;;5.00;4.60;;;32.90;29.90;;;;;;5032682;28;20121;-74
2021/04/15 13:17:53;;;;;;;4.57;4.13;;;33.50;30.70;;;;;;5032261;28;20026;-74
2021/04/15 13:20:19;;;;;;;5.00;4.45;;;33.90;30.00;;;;;;5032231;28;20029;-74
2021/04/15 13:23:10;;;;;;;4.45;4.07;;;32.80;28.40;;;;;;5031217;28;20463;-74
2021/04/15 13:25:57;;;;;;;10.70;4.28;;;33.00;30.40;;;;;;5031071;28;20450;-74
2021/04/15 13:28:45;;;;;;;5.07;4.40;;;32.40;32.10;;;;;;5032363;28;20025;-74
2021/04/15 13:31:34;;;;;;;3.97;3.60;;;31.70;29.70;;;;;;5032249;28;20043;-74
2021/04/15 13:34:06;;;;;;;4.57;4.13;;;32.40;31.60;;;;;;5032074;28;20025;-74
2021/04/15 13:36:33;;;;;;;5.65;4.03;;;33.60;31.60;;;;;;5032258;28;20057;-74
2021/04/15 13:39:25;;;;;;;4.40;4.10;;;33.20;31.10;;;;;;5032232;28;20029;-74
2021/04/15 13:41:54;;;;;;;4.05;3.75;;;33.70;30.10;;;;;;5032103;28;20040;-74
2021/04/15 13:44:57;;;;;;;4.53;4.15;;;33.40;30.20;;;;;;5032046;28;20022;-74
2021/04/15 13:47:41;;;;;;;4.63;4.25;;;31.30;29.70;;;;;;5029869;28;20034;-74
2021/04/15 13:50:07;;;;;;;6.80;4.35;;;32.40;32.90;;;;;;5029643;28;20569;-74